Time;durP1;ratioP1;P1;durP2;ratioP2;P2;SDS_P1;SDS_P2;PMS_P1;PMS_P2;Temp;Humidity;BMP_temperature;BMP_pressure;BME280_temperature;BME280_humidity;BME280_pressure;Samples;Min_cycle;Max_cycle;Signal;HPM_P1;HPM_P2
2024/02/04 00:04:32;;;;;;;13.63;11.07;;;;;9.80;102037.00;;;;10395605;28;20267;-86
2024/02/04 00:09:33;;;;;;;16.87;11.07;;;;;9.80;102041.00;;;;10353096;28;20314;-86
2024/02/04 00:14:37;;;;;;;16.63;10.77;;;;;9.80;102045.00;;;;10375789;28;21833;-85
2024/02/04 00:19:39;;;;;;;15.30;10.60;;;;;9.80;102052.00;;;;10347273;28;20232;-86
2024/02/04 00:24:40;;;;;;;23.07;11.67;;;;;9.80;102043.00;;;;10358644;28;21889;-83
2024/02/04 00:29:41;;;;;;;18.43;10.60;;;;;9.80;102041.00;;;;10360256;28;21583;-83
2024/02/04 00:34:42;;;;;;;17.23;10.10;;;;;9.90;102045.00;;;;10366800;28;21582;-84
2024/02/04 00:39:44;;;;;;;18.00;9.40;;;;;9.80;102049.00;;;;10391539;28;20271;-83
2024/02/04 00:44:45;;;;;;;13.37;9.33;;;;;9.80;102037.00;;;;10363837;28;20229;-83
2024/02/04 00:49:46;;;;;;;12.73;8.40;;;;;9.80;102039.00;;;;10350753;28;20318;-80
2024/02/04 00:54:48;;;;;;;10.33;8.47;;;;;9.90;102040.00;;;;10341011;28;20233;-83
2024/02/04 00:59:52;;;;;;;16.03;8.50;;;;;9.90;102036.00;;;;10373667;28;21926;-83
2024/02/04 01:04:53;;;;;;;13.47;8.67;;;;;9.90;102044.00;;;;10344907;28;21974;-82
2024/02/04 01:09:55;;;;;;;11.10;8.50;;;;;9.90;102040.00;;;;10358895;28;20244;-81
2024/02/04 01:14:56;;;;;;;14.60;7.87;;;;;9.90;102033.00;;;;10360852;28;20221;-81
2024/02/04 01:19:57;;;;;;;15.77;9.00;;;;;9.90;102035.00;;;;10376667;28;20320;-81
2024/02/04 01:24:58;;;;;;;13.60;8.90;;;;;9.90;102022.00;;;;10349831;28;20229;-81
2024/02/04 01:29:59;;;;;;;12.90;8.33;;;;;9.90;102030.00;;;;10361867;28;20221;-81
2024/02/04 01:35:01;;;;;;;10.83;7.67;;;;;9.90;102018.00;;;;10395249;28;20225;-81
2024/02/04 01:40:02;;;;;;;13.33;7.67;;;;;9.90;102021.00;;;;10405379;28;20271;-79
2024/02/04 01:45:04;;;;;;;11.80;8.80;;;;;10.00;102030.00;;;;10382601;28;20286;-81
2024/02/04 01:50:06;;;;;;;13.37;7.73;;;;;10.00;102027.00;;;;10373354;28;20229;-80
2024/02/04 01:55:07;;;;;;;17.67;7.83;;;;;10.00;102023.00;;;;10363926;28;20404;-80
2024/02/04 02:00:10;;;;;;;12.87;8.80;;;;;10.00;102015.00;;;;10340560;28;20261;-80
2024/02/04 02:05:11;;;;;;;13.47;8.10;;;;;10.00;102030.00;;;;10336130;28;20918;-81
2024/02/04 02:10:14;;;;;;;16.83;9.03;;;;;10.00;102038.00;;;;10331224;28;20365;-81
2024/02/04 02:15:20;;;;;;;13.33;9.57;;;;;10.00;102020.00;;;;10335989;28;20346;-81
2024/02/04 02:20:30;;;;;;;16.10;10.30;;;;;10.00;102021.00;;;;10322887;28;20229;-81
2024/02/04 02:25:33;;;;;;;19.87;11.00;;;;;10.00;102022.00;;;;10357398;28;20252;-79
2024/02/04 02:30:34;;;;;;;15.93;10.87;;;;;10.00;102017.00;;;;10364304;28;20230;-80
2024/02/04 02:35:36;;;;;;;19.10;10.83;;;;;10.10;102021.00;;;;10353147;28;20233;-80
2024/02/04 02:40:47;;;;;;;20.37;11.27;;;;;10.10;102023.00;;;;10356070;28;20236;-79
2024/02/04 02:45:48;;;;;;;20.57;11.40;;;;;10.10;102029.00;;;;10379685;28;20233;-80
2024/02/04 02:50:49;;;;;;;18.73;12.27;;;;;10.10;102028.00;;;;10364967;28;20222;-79
2024/02/04 02:55:51;;;;;;;22.57;12.43;;;;;10.10;102030.00;;;;10372177;28;20237;-81
2024/02/04 03:00:52;;;;;;;23.47;12.27;;;;;10.10;102022.00;;;;10373088;28;20307;-81
2024/02/04 03:05:53;;;;;;;23.70;12.07;;;;;10.10;102011.00;;;;10357875;28;20233;-78
2024/02/04 03:10:54;;;;;;;18.73;12.97;;;;;10.10;102015.00;;;;10361581;28;20270;-80
2024/02/04 03:15:57;;;;;;;20.67;12.33;;;;;10.20;102011.00;;;;10347909;28;20292;-79
2024/02/04 03:20:58;;;;;;;19.90;12.80;;;;;10.20;102011.00;;;;10346987;28;21292;-80
2024/02/04 03:25:59;;;;;;;27.37;13.33;;;;;10.20;101993.00;;;;10354070;28;20234;-81
2024/02/04 03:31:01;;;;;;;24.47;12.93;;;;;10.20;101984.00;;;;10338569;28;20344;-81
2024/02/04 03:36:03;;;;;;;24.57;12.27;;;;;10.10;101996.00;;;;10333056;28;20267;-79
2024/02/04 03:41:04;;;;;;;17.07;10.73;;;;;10.10;101996.00;;;;10335183;28;21859;-80
2024/02/04 03:46:06;;;;;;;21.97;11.20;;;;;10.10;101992.00;;;;10347833;28;20232;-82
2024/02/04 03:51:07;;;;;;;15.13;10.47;;;;;10.10;101993.00;;;;10355785;28;20229;-80
2024/02/04 03:56:09;;;;;;;24.10;11.67;;;;;10.10;102011.00;;;;10363424;28;20237;-84
2024/02/04 04:01:11;;;;;;;23.00;11.63;;;;;10.10;102011.00;;;;10342641;28;20263;-84
2024/02/04 04:06:13;;;;;;;19.47;12.00;;;;;10.10;102006.00;;;;10357452;28;21349;-84
2024/02/04 04:11:14;;;;;;;28.87;11.97;;;;;10.10;102011.00;;;;10347266;28;20243;-84
2024/02/04 04:16:21;;;;;;;18.83;10.40;;;;;10.10;102000.00;;;;10343307;28;20356;-84
2024/02/04 04:21:22;;;;;;;18.07;10.13;;;;;10.10;102005.00;;;;10389996;28;21430;-84
2024/02/04 04:26:23;;;;;;;18.57;10.53;;;;;10.10;101985.00;;;;10434104;28;20214;-83
2024/02/04 04:31:24;;;;;;;19.90;10.67;;;;;10.10;101999.00;;;;10449946;28;21313;-84
2024/02/04 04:36:26;;;;;;;14.80;9.77;;;;;10.10;101991.00;;;;10373017;28;20221;-84
2024/02/04 04:41:27;;;;;;;14.97;9.57;;;;;10.10;101988.00;;;;10343244;28;20252;-83
2024/02/04 04:46:28;;;;;;;18.63;9.63;;;;;10.10;101988.00;;;;10359952;28;20846;-84
2024/02/04 04:51:29;;;;;;;21.53;10.27;;;;;10.00;101994.00;;;;10367197;28;20221;-83
2024/02/04 04:56:38;;;;;;;18.57;9.23;;;;;10.00;101990.00;;;;10343884;28;20260;-84
2024/02/04 05:01:49;;;;;;;13.10;8.07;;;;;10.00;101977.00;;;;10359655;28;20248;-83
2024/02/04 05:06:51;;;;;;;16.20;8.53;;;;;10.00;101966.00;;;;10363114;28;20217;-80
2024/02/04 05:11:52;;;;;;;14.17;7.80;;;;;10.00;101958.00;;;;10364474;28;20229;-80
2024/02/04 05:16:55;;;;;;;16.67;6.87;;;;;10.00;101966.00;;;;10365932;28;20225;-81
2024/02/04 05:21:56;;;;;;;10.70;6.30;;;;;10.00;101966.00;;;;10377109;28;20363;-81
2024/02/04 05:26:57;;;;;;;9.87;6.30;;;;;10.00;101984.00;;;;10377841;28;20768;-83
2024/02/04 05:31:58;;;;;;;9.60;6.23;;;;;10.00;101979.00;;;;10348505;28;20967;-80
2024/02/04 05:37:00;;;;;;;12.47;7.00;;;;;10.00;101954.00;;;;10365544;28;20229;-83
2024/02/04 05:42:01;;;;;;;17.80;7.97;;;;;10.00;101967.00;;;;10390039;28;20244;-83
2024/02/04 05:47:03;;;;;;;15.63;8.43;;;;;10.00;101956.00;;;;10357402;28;20347;-82
2024/02/04 05:52:04;;;;;;;19.50;9.20;;;;;10.00;101948.00;;;;10364421;28;20288;-82
2024/02/04 05:57:06;;;;;;;24.77;10.20;;;;;10.00;101950.00;;;;10366622;28;20221;-83
2024/02/04 06:02:07;;;;;;;21.37;10.70;;;;;10.00;101956.00;;;;10354273;28;20237;-81
2024/02/04 06:07:09;;;;;;;20.57;10.53;;;;;10.00;101935.00;;;;10373942;28;20663;-81
2024/02/04 06:12:10;;;;;;;28.27;11.63;;;;;10.00;101952.00;;;;10334790;28;20658;-81
2024/02/04 06:17:11;;;;;;;26.90;11.97;;;;;10.00;101949.00;;;;10337447;28;20283;-81
2024/02/04 06:22:14;;;;;;;25.00;10.83;;;;;10.10;101958.00;;;;10362485;28;20231;-80
2024/02/04 06:27:16;;;;;;;29.60;13.47;;;;;10.10;101954.00;;;;10351138;28;20319;-80
2024/02/04 06:32:20;;;;;;;36.53;16.17;;;;;10.10;101957.00;;;;10358971;28;20229;-81
2024/02/04 06:37:21;;;;;;;37.10;17.07;;;;;10.10;101952.00;;;;10359954;28;20293;-82
2024/02/04 06:42:22;;;;;;;41.70;22.47;;;;;10.10;101960.00;;;;10375955;28;20335;-81
2024/02/04 06:47:23;;;;;;;31.47;16.17;;;;;10.00;101962.00;;;;10364404;28;20233;-81
2024/02/04 06:52:25;;;;;;;34.57;17.47;;;;;10.00;101946.00;;;;10343195;28;20241;-81
2024/02/04 06:57:26;;;;;;;20.57;12.83;;;;;10.00;101933.00;;;;10351151;28;21877;-80
2024/02/04 07:02:27;;;;;;;20.07;11.47;;;;;10.00;101952.00;;;;10362264;28;20234;-80
2024/02/04 07:07:28;;;;;;;18.97;9.53;;;;;10.00;101956.00;;;;10360192;28;20260;-80
2024/02/04 07:12:29;;;;;;;18.27;9.23;;;;;10.00;101943.00;;;;10361926;28;20221;-80
2024/02/04 07:17:31;;;;;;;24.57;14.03;;;;;10.00;101949.00;;;;10412663;28;20228;-81
2024/02/04 07:22:32;;;;;;;17.37;10.20;;;;;10.00;101953.00;;;;10479277;28;20240;-81
2024/02/04 07:27:37;;;;;;;20.03;10.30;;;;;10.00;101948.00;;;;10374534;28;20225;-80
2024/02/04 07:32:38;;;;;;;19.37;10.83;;;;;10.00;101950.00;;;;10364229;28;20383;-80
2024/02/04 07:37:40;;;;;;;24.60;12.27;;;;;10.10;101943.00;;;;10404433;28;21134;-80
2024/02/04 07:42:41;;;;;;;24.87;12.10;;;;;10.10;101934.00;;;;10366218;28;20235;-80
2024/02/04 07:47:42;;;;;;;24.43;13.10;;;;;10.20;101944.00;;;;10366268;28;20237;-80
2024/02/04 07:52:43;;;;;;;26.20;13.27;;;;;10.20;101950.00;;;;10361103;28;20236;-80
2024/02/04 07:57:46;;;;;;;26.33;13.40;;;;;10.30;101939.00;;;;10371673;28;21925;-80
2024/02/04 08:02:47;;;;;;;30.97;13.33;;;;;10.30;101926.00;;;;10400520;28;20222;-80
2024/02/04 08:07:48;;;;;;;23.33;12.47;;;;;10.30;101925.00;;;;10363149;28;21575;-79
2024/02/04 08:12:52;;;;;;;20.83;11.77;;;;;10.40;101921.00;;;;10377576;28;20230;-79
2024/02/04 08:17:53;;;;;;;23.53;10.50;;;;;10.40;101932.00;;;;10370783;28;20229;-80
2024/02/04 08:22:54;;;;;;;19.63;9.63;;;;;10.60;101916.00;;;;10371352;28;20287;-81
2024/02/04 08:27:55;;;;;;;20.47;8.47;;;;;10.70;101905.00;;;;10378681;28;20226;-78
2024/02/04 08:33:01;;;;;;;17.07;8.17;;;;;10.80;101893.00;;;;10348985;28;20643;-79
2024/02/04 08:38:02;;;;;;;14.73;7.20;;;;;10.80;101888.00;;;;10346884;28;20290;-81
2024/02/04 08:43:03;;;;;;;14.73;7.97;;;;;10.80;101918.00;;;;10381501;28;20339;-81
2024/02/04 08:48:05;;;;;;;13.20;8.10;;;;;10.70;101929.00;;;;10368573;28;21978;-81
2024/02/04 08:53:06;;;;;;;14.50;8.87;;;;;10.80;101949.00;;;;10378154;28;20265;-81
2024/02/04 08:58:07;;;;;;;12.43;8.80;;;;;10.90;101950.00;;;;10333779;28;20888;-82
2024/02/04 09:03:09;;;;;;;16.07;9.03;;;;;11.00;101946.00;;;;10347807;28;21205;-81
2024/02/04 09:08:10;;;;;;;18.27;10.27;;;;;11.10;101948.00;;;;10348602;28;20294;-82
2024/02/04 09:13:12;;;;;;;14.93;8.80;;;;;11.20;101961.00;;;;10340238;28;20228;-82
2024/02/04 09:18:13;;;;;;;15.67;8.70;;;;;11.20;101959.00;;;;10353109;28;20222;-82
2024/02/04 09:23:14;;;;;;;12.10;6.60;;;;;11.00;101961.00;;;;10361876;28;20237;-82
2024/02/04 09:28:16;;;;;;;11.87;5.87;;;;;11.00;101946.00;;;;10371479;28;20225;-81
2024/02/04 09:33:17;;;;;;;11.83;6.03;;;;;11.00;101946.00;;;;10346077;28;20221;-81
2024/02/04 09:38:20;;;;;;;12.93;6.23;;;;;11.00;101949.00;;;;10356308;28;20337;-82
2024/02/04 09:43:22;;;;;;;10.23;5.53;;;;;11.00;101944.00;;;;10361427;28;20231;-79
2024/02/04 09:48:25;;;;;;;12.93;6.00;;;;;11.00;101933.00;;;;10359470;28;20288;-81
2024/02/04 09:53:34;;;;;;;9.80;5.55;;;;;11.00;101926.00;;;;10372873;28;20298;-81
2024/02/04 09:58:35;;;;;;;10.05;5.72;;;;;11.10;101946.00;;;;10358478;28;20239;-82
2024/02/04 10:03:37;;;;;;;11.13;4.85;;;;;11.10;101955.00;;;;10374334;28;20232;-81
2024/02/04 10:08:38;;;;;;;12.63;5.22;;;;;11.30;101958.00;;;;10368051;28;21362;-82
2024/02/04 10:13:47;;;;;;;9.87;4.53;;;;;11.30;101932.00;;;;10412162;28;20205;-82
2024/02/04 10:18:49;;;;;;;8.93;4.18;;;;;11.40;101922.00;;;;10456968;28;20213;-82
2024/02/04 10:23:51;;;;;;;11.48;3.97;;;;;11.60;101921.00;;;;10389528;28;20347;-81
2024/02/04 10:28:53;;;;;;;13.23;4.40;;;;;11.80;101938.00;;;;10374368;28;20224;-82
2024/02/04 10:33:56;;;;;;;10.45;4.45;;;;;12.00;101936.00;;;;10334192;28;20228;-82
2024/02/04 10:38:57;;;;;;;9.25;4.57;;;;;11.90;101923.00;;;;10363000;28;20224;-82
2024/02/04 10:43:58;;;;;;;8.27;4.32;;;;;11.90;101929.00;;;;10335943;28;21277;-82
2024/02/04 10:49:03;;;;;;;13.70;4.70;;;;;12.00;101939.00;;;;10334956;28;20228;-82
2024/02/04 10:54:06;;;;;;;9.20;4.65;;;;;12.00;101943.00;;;;10355343;28;20900;-81
2024/02/04 10:59:11;;;;;;;11.43;5.03;;;;;12.00;101931.00;;;;10393339;28;20312;-81
2024/02/04 11:04:14;;;;;;;8.23;4.28;;;;;11.90;101935.00;;;;10343760;28;20919;-81
2024/02/04 11:09:17;;;;;;;6.28;3.25;;;;;12.00;101918.00;;;;10357110;28;20229;-81
2024/02/04 11:14:20;;;;;;;6.10;3.75;;;;;11.90;101918.00;;;;10338312;28;22673;-80
2024/02/04 11:19:44;;;;;;;8.15;3.70;;;;;11.90;101923.00;;;;10354856;28;20225;-80
2024/02/04 11:25:04;;;;;;;7.30;3.15;;;;;11.80;101923.00;;;;10355036;28;20233;-80
2024/02/04 11:30:06;;;;;;;4.40;2.95;;;;;11.70;101921.00;;;;10356050;28;20240;-80
2024/02/04 11:35:08;;;;;;;7.18;2.95;;;;;11.80;101918.00;;;;10339803;28;20268;-80
2024/02/04 11:40:15;;;;;;;7.20;2.88;;;;;11.80;101914.00;;;;10365793;28;20385;-80
2024/02/04 11:45:17;;;;;;;6.10;3.00;;;;;11.80;101907.00;;;;10347980;28;20225;-80
2024/02/04 11:50:29;;;;;;;4.78;2.38;;;;;12.00;101924.00;;;;10349276;28;20960;-80
2024/02/04 11:55:31;;;;;;;7.60;2.55;;;;;12.00;101911.00;;;;10332713;28;20299;-81
2024/02/04 12:00:36;;;;;;;7.93;2.70;;;;;12.30;101906.00;;;;10364166;28;20290;-80
2024/02/04 12:05:40;;;;;;;6.45;2.55;;;;;12.10;101909.00;;;;10364743;28;20379;-85
2024/02/04 12:10:42;;;;;;;5.88;2.60;;;;;12.00;101894.00;;;;10359971;28;20973;-85
2024/02/04 12:15:44;;;;;;;5.63;2.22;;;;;12.00;101900.00;;;;10353514;28;20694;-85
2024/02/04 12:20:48;;;;;;;2.92;2.00;;;;;11.90;101887.00;;;;10364836;28;20225;-87
2024/02/04 12:25:50;;;;;;;3.40;2.10;;;;;11.80;101886.00;;;;10386285;28;20237;-85
2024/02/04 12:30:58;;;;;;;5.80;2.05;;;;;11.80;101899.00;;;;10385109;28;21110;-86
2024/02/04 12:36:01;;;;;;;7.45;2.50;;;;;11.60;101890.00;;;;10382028;28;20271;-85
2024/02/04 12:41:03;;;;;;;5.00;2.05;;;;;11.70;101896.00;;;;10367496;28;20279;-85
2024/02/04 12:46:04;;;;;;;7.88;2.72;;;;;11.70;101882.00;;;;10380088;28;20229;-85
2024/02/04 12:51:05;;;;;;;4.90;2.28;;;;;11.90;101864.00;;;;10360075;28;20335;-86
2024/02/04 12:56:07;;;;;;;8.57;2.63;;;;;12.00;101863.00;;;;10375076;28;21704;-86
2024/02/04 13:01:08;;;;;;;4.00;2.08;;;;;12.40;101870.00;;;;10345773;28;20265;-85
2024/02/04 13:06:09;;;;;;;4.95;1.90;;;;;12.80;101859.00;;;;10403027;28;20222;-86
2024/02/04 13:11:11;;;;;;;3.55;2.00;;;;;12.70;101865.00;;;;10472510;28;20235;-85
2024/02/04 13:16:12;;;;;;;4.35;1.80;;;;;12.90;101865.00;;;;10417277;28;20257;-81
2024/02/04 13:21:13;;;;;;;6.45;4.10;;;;;12.80;101870.00;;;;10363111;28;21610;-83
2024/02/04 13:26:15;;;;;;;7.53;4.90;;;;;12.60;101859.00;;;;10359765;28;20237;-80
2024/02/04 13:31:16;;;;;;;4.38;3.40;;;;;12.50;101840.00;;;;10341487;28;20218;-81
2024/02/04 13:36:18;;;;;;;2.35;2.08;;;;;12.60;101843.00;;;;10368261;28;21686;-80
2024/02/04 13:41:19;;;;;;;3.88;2.30;;;;;12.60;101841.00;;;;10363567;28;20422;-81
2024/02/04 13:46:20;;;;;;;2.58;1.83;;;;;12.50;101843.00;;;;10344636;28;21893;-80
2024/02/04 13:51:21;;;;;;;2.40;1.73;;;;;12.40;101837.00;;;;10340633;28;20828;-81
2024/02/04 13:56:37;;;;;;;2.50;1.58;;;;;12.40;101837.00;;;;10373138;28;20240;-81
2024/02/04 14:01:38;;;;;;;1.98;1.73;;;;;12.30;101844.00;;;;10360459;28;20229;-80
2024/02/04 14:06:40;;;;;;;3.15;2.20;;;;;12.00;101847.00;;;;10376428;28;20260;-81
2024/02/04 14:11:41;;;;;;;5.50;3.00;;;;;12.00;101851.00;;;;10344510;28;20294;-80
2024/02/04 14:16:42;;;;;;;5.07;2.80;;;;;11.80;101843.00;;;;10355721;28;20232;-80
2024/02/04 14:21:44;;;;;;;8.18;3.55;;;;;11.60;101845.00;;;;10337276;28;20339;-79
2024/02/04 14:26:45;;;;;;;7.03;3.22;;;;;11.60;101836.00;;;;10336523;28;21580;-79
2024/02/04 14:31:47;;;;;;;5.70;3.53;;;;;11.60;101827.00;;;;10362702;28;20228;-80
2024/02/04 14:36:48;;;;;;;5.80;2.75;;;;;11.60;101832.00;;;;10357561;28;20573;-81
2024/02/04 14:41:49;;;;;;;7.47;2.50;;;;;11.50;101820.00;;;;10359322;28;20300;-80
2024/02/04 14:46:50;;;;;;;7.85;3.50;;;;;11.40;101835.00;;;;10356208;28;20233;-80
2024/02/04 14:51:51;;;;;;;8.40;3.22;;;;;11.50;101828.00;;;;10354674;28;20233;-78
2024/02/04 14:56:53;;;;;;;6.97;3.80;;;;;11.40;101824.00;;;;10345702;28;20222;-80
2024/02/04 15:01:54;;;;;;;7.32;3.15;;;;;11.40;101821.00;;;;10358999;28;20663;-79
2024/02/04 15:06:56;;;;;;;7.97;2.97;;;;;11.30;101815.00;;;;10372108;28;20269;-79
2024/02/04 15:11:58;;;;;;;7.40;2.70;;;;;11.30;101809.00;;;;10369811;28;20674;-80
2024/02/04 15:17:00;;;;;;;7.47;2.70;;;;;11.30;101818.00;;;;10362396;28;20240;-81
2024/02/04 15:22:03;;;;;;;5.35;2.65;;;;;11.30;101818.00;;;;10347671;28;20383;-81
2024/02/04 15:27:06;;;;;;;12.82;3.10;;;;;11.30;101813.00;;;;10364520;28;20296;-80
2024/02/04 15:32:07;;;;;;;7.80;3.10;;;;;11.30;101810.00;;;;10343570;28;20221;-80
2024/02/04 15:37:10;;;;;;;11.73;3.15;;;;;11.30;101802.00;;;;10360007;28;20967;-81
2024/02/04 15:42:11;;;;;;;10.27;2.88;;;;;11.20;101797.00;;;;10370880;28;20233;-78
2024/02/04 15:47:13;;;;;;;7.60;2.97;;;;;11.20;101789.00;;;;10363606;28;20284;-78
2024/02/04 15:52:14;;;;;;;6.88;3.30;;;;;11.20;101797.00;;;;10366591;28;20237;-78
2024/02/04 15:57:20;;;;;;;10.20;3.20;;;;;11.20;101797.00;;;;10353320;28;20240;-78
2024/02/04 16:02:21;;;;;;;8.90;2.87;;;;;11.10;101800.00;;;;10414664;28;20696;-77
2024/02/04 16:07:23;;;;;;;6.95;3.28;;;;;11.20;101792.00;;;;10402499;28;20340;-78
2024/02/04 16:12:24;;;;;;;11.60;3.20;;;;;11.20;101798.00;;;;10363195;28;20236;-78
2024/02/04 16:17:27;;;;;;;14.07;4.27;;;;;11.20;101784.00;;;;10373837;28;20221;-80
2024/02/04 16:22:29;;;;;;;8.45;3.85;;;;;11.10;101792.00;;;;10350035;28;20279;-79
2024/02/04 16:27:30;;;;;;;9.00;3.63;;;;;11.10;101792.00;;;;10355037;28;21930;-79
2024/02/04 16:32:32;;;;;;;13.48;3.95;;;;;11.10;101788.00;;;;10384284;28;20234;-80
2024/02/04 16:37:33;;;;;;;9.80;2.92;;;;;11.10;101781.00;;;;10358008;28;21139;-80
2024/02/04 16:42:35;;;;;;;9.50;3.40;;;;;11.10;101775.00;;;;10340696;28;20252;-80
2024/02/04 16:47:36;;;;;;;9.73;3.38;;;;;11.10;101781.00;;;;10342535;28;20222;-78
2024/02/04 16:52:37;;;;;;;7.63;3.53;;;;;11.10;101771.00;;;;10345119;28;20228;-80
2024/02/04 16:57:38;;;;;;;9.40;3.40;;;;;11.10;101774.00;;;;10351754;28;20263;-82
2024/02/04 17:02:41;;;;;;;11.50;3.90;;;;;11.10;101756.00;;;;10358223;28;20224;-82
2024/02/04 17:07:42;;;;;;;12.00;3.83;;;;;11.10;101752.00;;;;10342914;28;20434;-81
2024/02/04 17:12:44;;;;;;;10.00;3.42;;;;;11.00;101765.00;;;;10352017;28;21180;-81
2024/02/04 17:17:50;;;;;;;9.50;3.50;;;;;11.00;101754.00;;;;10358490;28;20245;-81
2024/02/04 17:22:58;;;;;;;11.90;3.53;;;;;11.00;101766.00;;;;10349034;28;20288;-82
2024/02/04 17:28:03;;;;;;;12.13;3.70;;;;;11.00;101749.00;;;;10386420;28;20220;-82
2024/02/04 17:33:05;;;;;;;14.87;4.80;;;;;11.00;101745.00;;;;10369401;28;20226;-82
2024/02/04 17:38:06;;;;;;;11.53;3.57;;;;;11.00;101736.00;;;;10360494;28;20997;-82
2024/02/04 17:43:10;;;;;;;9.73;3.97;;;;;10.90;101739.00;;;;10368027;28;20325;-83
2024/02/04 17:48:13;;;;;;;7.63;4.17;;;;;10.90;101733.00;;;;10334405;28;21195;-82
2024/02/04 17:53:14;;;;;;;10.90;3.80;;;;;10.90;101730.00;;;;10354926;28;20311;-82
2024/02/04 17:58:15;;;;;;;16.23;4.10;;;;;10.90;101730.00;;;;10346127;28;20261;-82
2024/02/04 18:03:17;;;;;;;9.07;3.47;;;;;10.90;101728.00;;;;10352015;28;20264;-83
2024/02/04 18:08:18;;;;;;;13.60;3.83;;;;;10.90;101737.00;;;;10366626;28;20645;-80
2024/02/04 18:13:20;;;;;;;12.33;4.17;;;;;10.90;101758.00;;;;10359512;28;20221;-81
2024/02/04 18:18:21;;;;;;;17.53;4.27;;;;;10.90;101767.00;;;;10343977;28;20225;-80
2024/02/04 18:23:22;;;;;;;19.30;5.30;;;;;10.90;101784.00;;;;10353349;28;20241;-81
2024/02/04 18:28:24;;;;;;;12.63;4.20;;;;;10.90;101783.00;;;;10367226;28;20217;-81
2024/02/04 18:33:25;;;;;;;16.40;5.23;;;;;10.90;101791.00;;;;10367094;28;20232;-80
2024/02/04 18:38:26;;;;;;;15.00;4.37;;;;;10.90;101796.00;;;;10352380;28;20295;-81
2024/02/04 18:43:27;;;;;;;14.27;4.67;;;;;10.90;101795.00;;;;10385570;28;20232;-81
2024/02/04 18:48:29;;;;;;;17.77;5.23;;;;;10.80;101786.00;;;;10353569;28;20232;-81
2024/02/04 18:53:31;;;;;;;14.73;4.37;;;;;10.80;101775.00;;;;10400036;28;20255;-80
2024/02/04 18:58:33;;;;;;;16.73;4.47;;;;;10.80;101778.00;;;;10461305;28;20209;-82
2024/02/04 19:03:34;;;;;;;13.97;4.33;;;;;10.70;101783.00;;;;10392296;28;20226;-82
2024/02/04 19:08:36;;;;;;;14.83;4.53;;;;;10.70;101772.00;;;;10343460;28;20209;-81
2024/02/04 19:13:37;;;;;;;13.03;4.90;;;;;10.60;101777.00;;;;10366734;28;20229;-81
2024/02/04 19:18:39;;;;;;;12.60;4.90;;;;;10.50;101770.00;;;;10370983;28;20238;-81
2024/02/04 19:23:41;;;;;;;17.97;5.70;;;;;10.50;101758.00;;;;10358628;28;20225;-81
2024/02/04 19:28:42;;;;;;;15.87;4.63;;;;;10.40;101760.00;;;;10348306;28;20221;-81
2024/02/04 19:33:43;;;;;;;14.93;5.40;;;;;10.30;101761.00;;;;10374404;28;20193;-81
2024/02/04 19:38:45;;;;;;;16.43;5.00;;;;;10.30;101770.00;;;;10384177;28;20240;-81
2024/02/04 19:43:46;;;;;;;12.03;5.10;;;;;10.20;101762.00;;;;10371767;28;20311;-80
2024/02/04 19:48:47;;;;;;;18.57;5.60;;;;;10.20;101751.00;;;;10370518;28;20214;-81
2024/02/04 19:53:49;;;;;;;13.73;5.77;;;;;10.20;101758.00;;;;10376664;28;20290;-81
2024/02/04 19:58:50;;;;;;;14.47;5.10;;;;;10.20;101745.00;;;;10396692;28;20279;-81
2024/02/04 20:03:51;;;;;;;17.30;5.37;;;;;10.20;101744.00;;;;10372015;28;20333;-81
2024/02/04 20:08:54;;;;;;;13.80;4.80;;;;;10.20;101728.00;;;;10374757;28;20206;-81
2024/02/04 20:13:56;;;;;;;15.20;5.97;;;;;10.20;101737.00;;;;10357797;28;20221;-81
2024/02/04 20:18:57;;;;;;;16.83;5.17;;;;;10.20;101735.00;;;;10372568;28;20208;-80
2024/02/04 20:23:58;;;;;;;11.23;4.97;;;;;10.30;101729.00;;;;10377501;28;20253;-82
2024/02/04 20:29:00;;;;;;;18.83;5.20;;;;;10.30;101729.00;;;;10372939;28;21935;-83
2024/02/04 20:34:07;;;;;;;11.90;5.97;;;;;10.30;101728.00;;;;10357377;28;20288;-83
2024/02/04 20:39:11;;;;;;;18.17;5.67;;;;;10.30;101730.00;;;;10393783;28;20230;-83
2024/02/04 20:44:13;;;;;;;14.07;5.50;;;;;10.30;101732.00;;;;10374926;28;20232;-82
2024/02/04 20:49:14;;;;;;;14.93;5.53;;;;;10.30;101736.00;;;;10374637;28;20216;-83
2024/02/04 20:54:15;;;;;;;18.87;6.17;;;;;10.30;101722.00;;;;10385333;28;20229;-82
2024/02/04 20:59:19;;;;;;;17.13;6.17;;;;;10.40;101708.00;;;;10393429;28;20198;-81
2024/02/04 21:04:20;;;;;;;17.47;5.90;;;;;10.30;101717.00;;;;10388926;28;20225;-82
2024/02/04 21:09:22;;;;;;;21.13;5.83;;;;;10.30;101724.00;;;;10387110;28;20209;-82
2024/02/04 21:14:23;;;;;;;22.77;5.93;;;;;10.20;101721.00;;;;10369252;28;20213;-82
2024/02/04 21:19:24;;;;;;;21.93;5.93;;;;;10.30;101712.00;;;;10362984;28;20228;-82
2024/02/04 21:24:26;;;;;;;17.87;6.60;;;;;10.30;101725.00;;;;10348755;28;20221;-82
2024/02/04 21:29:27;;;;;;;22.00;5.93;;;;;10.40;101731.00;;;;10340898;28;20233;-83
2024/02/04 21:34:28;;;;;;;18.13;6.17;;;;;10.40;101723.00;;;;10344935;28;20340;-82
2024/02/04 21:39:30;;;;;;;20.58;6.05;;;;;10.40;101727.00;;;;10361822;28;20225;-83
2024/02/04 21:44:31;;;;;;;19.70;5.55;;;;;10.40;101729.00;;;;10445673;28;20216;-82
2024/02/04 21:49:32;;;;;;;16.80;5.90;;;;;10.40;101714.00;;;;10469112;28;20205;-84
2024/02/04 21:54:34;;;;;;;20.10;6.17;;;;;10.40;101715.00;;;;10377617;28;20947;-83
2024/02/04 21:59:36;;;;;;;17.80;5.83;;;;;10.40;101712.00;;;;10359177;28;20461;-83
2024/02/04 22:04:37;;;;;;;17.47;6.03;;;;;10.40;101717.00;;;;10362114;28;20221;-82
2024/02/04 22:09:38;;;;;;;26.63;5.60;;;;;10.50;101737.00;;;;10357560;28;20216;-83
2024/02/04 22:14:40;;;;;;;29.25;6.65;;;;;10.50;101732.00;;;;10370113;28;20238;-84
2024/02/04 22:19:44;;;;;;;18.50;5.65;;;;;10.50;101736.00;;;;10363376;28;21437;-83
2024/02/04 22:24:46;;;;;;;19.17;5.67;;;;;10.50;101735.00;;;;10353011;28;20365;-83
2024/02/04 22:29:47;;;;;;;26.93;5.83;;;;;10.50;101736.00;;;;10381960;28;20205;-82
2024/02/04 22:34:48;;;;;;;30.07;5.90;;;;;10.40;101752.00;;;;10378215;28;20205;-83
2024/02/04 22:39:50;;;;;;;19.57;5.90;;;;;10.40;101740.00;;;;10382004;28;20233;-83
2024/02/04 22:44:52;;;;;;;22.33;5.47;;;;;10.30;101757.00;;;;10367516;28;20210;-82
2024/02/04 22:49:53;;;;;;;23.77;5.77;;;;;10.20;101762.00;;;;10374205;28;20208;-80
2024/02/04 22:54:54;;;;;;;22.50;5.40;;;;;10.30;101763.00;;;;10360638;28;21909;-82
2024/02/04 22:59:56;;;;;;;24.43;5.37;;;;;10.30;101764.00;;;;10348267;28;20220;-82
2024/02/04 23:04:57;;;;;;;23.20;6.00;;;;;10.20;101765.00;;;;10366653;28;20220;-81
2024/02/04 23:09:58;;;;;;;28.63;6.37;;;;;10.10;101775.00;;;;10367593;28;20213;-81
2024/02/04 23:14:59;;;;;;;19.80;5.57;;;;;10.20;101782.00;;;;10365939;28;20259;-81
2024/02/04 23:20:01;;;;;;;25.67;5.77;;;;;10.20;101776.00;;;;10370817;28;20205;-81
2024/02/04 23:25:08;;;;;;;20.05;5.97;;;;;10.10;101767.00;;;;10367785;28;20938;-80
2024/02/04 23:30:10;;;;;;;23.80;5.57;;;;;10.10;101770.00;;;;10354765;28;20376;-81
2024/02/04 23:35:11;;;;;;;21.37;6.10;;;;;10.10;101778.00;;;;10368834;28;20198;-81
2024/02/04 23:40:13;;;;;;;25.27;5.97;;;;;10.10;101789.00;;;;10382621;28;20225;-79
2024/02/04 23:45:15;;;;;;;22.27;6.20;;;;;10.10;101784.00;;;;10352975;28;20322;-78
2024/02/04 23:50:19;;;;;;;18.63;5.00;;;;;10.00;101766.00;;;;10392408;28;21069;-79
2024/02/04 23:55:20;;;;;;;21.07;5.90;;;;;10.00;101782.00;;;;10352818;28;20316;-81
